createdAt,value
2023-04-22T00:01:06.708Z,9.95
2023-04-22T00:03:34.210Z,13.23
2023-04-22T00:06:01.556Z,10.52
2023-04-22T00:08:28.649Z,13.55
2023-04-22T00:10:56.678Z,11.20
2023-04-22T00:13:23.552Z,10.40
2023-04-22T00:15:51.135Z,12.05
2023-04-22T00:18:18.350Z,11.80
2023-04-22T00:20:45.464Z,13.50
2023-04-22T00:23:13.446Z,33.28
2023-04-22T00:25:40.926Z,20.98
2023-04-22T00:28:07.920Z,17.55
2023-04-22T00:30:35.914Z,14.15
2023-04-22T00:33:02.897Z,16.38
2023-04-22T00:35:30.441Z,13.57
2023-04-22T00:37:57.339Z,12.15
2023-04-22T00:40:24.204Z,12.45
2023-04-22T00:42:51.521Z,14.45
2023-04-22T00:45:19.699Z,15.80
2023-04-22T00:47:47.619Z,15.40
2023-04-22T00:50:15.623Z,17.95
2023-04-22T00:52:42.517Z,17.98
2023-04-22T00:55:09.988Z,15.27
2023-04-22T00:57:38.209Z,12.60
2023-04-22T01:00:10.130Z,11.65
2023-04-22T01:02:38.906Z,13.68
2023-04-22T01:05:09.499Z,9.00
2023-04-22T01:07:36.957Z,14.67
2023-04-22T01:10:05.462Z,15.45
2023-04-22T01:12:32.432Z,18.42
2023-04-22T01:14:59.325Z,15.23
2023-04-22T01:17:26.436Z,11.90
2023-04-22T01:19:53.406Z,14.48
2023-04-22T01:22:21.395Z,17.08
2023-04-22T01:24:48.982Z,18.73
2023-04-22T01:27:16.193Z,15.65
2023-04-22T01:29:43.804Z,15.00
2023-04-22T01:32:11.007Z,15.35
2023-04-22T01:34:37.876Z,16.77
2023-04-22T01:37:05.924Z,13.80
2023-04-22T01:39:33.105Z,18.48
2023-04-22T01:42:00.133Z,16.95
2023-04-22T01:44:27.046Z,13.85
2023-04-22T01:46:54.306Z,10.05
2023-04-22T01:49:21.283Z,13.20
2023-04-22T01:51:48.349Z,13.98
2023-04-22T01:54:16.074Z,13.48
2023-04-22T01:56:48.779Z,13.75
2023-04-22T01:59:15.614Z,16.17
2023-04-22T02:01:42.464Z,12.25
2023-04-22T02:04:09.441Z,11.75
2023-04-22T02:06:36.327Z,11.77
2023-04-22T02:09:06.128Z,14.82
2023-04-22T02:11:32.955Z,12.38
2023-04-22T02:13:59.730Z,12.82
2023-04-22T02:16:26.681Z,16.45
2023-04-22T02:18:53.600Z,14.23
2023-04-22T02:21:20.394Z,15.38
2023-04-22T02:23:47.246Z,16.70
2023-04-22T02:26:14.387Z,12.75
2023-04-22T02:28:42.706Z,12.18
2023-04-22T02:31:09.589Z,17.65
2023-04-22T02:33:39.415Z,18.98
2023-04-22T02:36:09.273Z,14.73
2023-04-22T02:38:36.145Z,19.65
2023-04-22T02:41:03.015Z,12.85
2023-04-22T02:43:30.716Z,12.77
2023-04-22T02:45:57.505Z,22.35
2023-04-22T02:48:24.760Z,13.45
2023-04-22T02:50:51.629Z,17.45
2023-04-22T02:53:18.559Z,19.73
2023-04-22T02:55:45.679Z,12.75
2023-04-22T02:58:12.512Z,13.07
2023-04-22T03:00:39.415Z,17.25
2023-04-22T03:03:06.615Z,13.77
2023-04-22T03:05:34.566Z,14.95
2023-04-22T03:08:02.632Z,15.93
2023-04-22T03:10:30.323Z,12.30
2023-04-22T03:12:57.099Z,11.23
2023-04-22T03:15:24.301Z,14.73
2023-04-22T03:17:51.310Z,16.83
2023-04-22T03:20:20.619Z,15.18
2023-04-22T03:22:47.990Z,16.08
2023-04-22T03:25:16.467Z,12.40
2023-04-22T03:27:49.482Z,15.75
2023-04-22T03:30:16.325Z,11.57
2023-04-22T03:32:43.201Z,13.70
2023-04-22T03:35:22.533Z,14.23
2023-04-22T03:37:51.257Z,16.80
2023-04-22T03:40:23.467Z,14.70
2023-04-22T03:42:50.394Z,17.27
2023-04-22T03:45:19.978Z,15.85
2023-04-22T03:47:54.910Z,15.10
2023-04-22T03:50:27.366Z,13.18
2023-04-22T03:52:56.130Z,13.35
2023-04-22T03:55:23.299Z,19.75
2023-04-22T03:57:52.779Z,16.25
2023-04-22T04:00:20.590Z,15.30
2023-04-22T04:02:55.520Z,12.60
2023-04-22T04:05:26.347Z,15.52
2023-04-22T04:07:53.335Z,13.90
2023-04-22T04:10:20.208Z,17.92
2023-04-22T04:12:48.448Z,15.38
2023-04-22T04:15:15.303Z,15.50
2023-04-22T04:17:43.531Z,12.77
2023-04-22T04:20:10.968Z,17.80
2023-04-22T04:22:39.344Z,20.23
2023-04-22T04:25:08.117Z,19.10
2023-04-22T04:27:41.561Z,15.32
2023-04-22T04:30:11.361Z,14.27
2023-04-22T04:32:45.620Z,20.55
2023-04-22T04:35:14.719Z,16.10
2023-04-22T04:37:46.431Z,12.90
2023-04-22T04:40:14.588Z,13.80
2023-04-22T04:43:08.354Z,15.43
2023-04-22T04:45:48.515Z,22.83
2023-04-22T04:48:19.992Z,14.57
2023-04-22T04:50:54.141Z,21.30
2023-04-22T04:53:22.888Z,14.50
2023-04-22T04:55:50.150Z,15.50
2023-04-22T04:58:21.671Z,12.50
2023-04-22T05:00:57.269Z,13.77
2023-04-22T05:03:25.820Z,16.90
2023-04-22T05:05:54.157Z,15.48
2023-04-22T05:08:21.329Z,13.13
2023-04-22T05:10:49.951Z,12.38
2023-04-22T05:13:18.330Z,16.15
2023-04-22T05:15:47.233Z,19.10
2023-04-22T05:18:14.176Z,17.70
2023-04-22T05:20:41.238Z,14.80
2023-04-22T05:23:08.575Z,14.85
2023-04-22T05:25:36.108Z,20.83
2023-04-22T05:28:08.428Z,14.90
2023-04-22T05:30:43.708Z,16.38
2023-04-22T05:33:10.849Z,16.17
2023-04-22T05:35:38.122Z,17.42
2023-04-22T05:38:05.137Z,18.10
2023-04-22T05:40:33.375Z,17.02
2023-04-22T05:43:01.295Z,15.30
2023-04-22T05:45:28.383Z,15.65
2023-04-22T05:47:55.820Z,13.25
2023-04-22T05:50:24.764Z,16.30
2023-04-22T05:52:58.273Z,16.75
2023-04-22T05:55:25.241Z,16.27
2023-04-22T05:57:52.789Z,14.38
2023-04-22T06:00:30.402Z,14.50
2023-04-22T06:03:12.754Z,13.95
2023-04-22T06:05:40.821Z,16.30
2023-04-22T06:08:07.643Z,15.68
2023-04-22T06:10:35.534Z,18.55
2023-04-22T06:13:02.505Z,16.27
2023-04-22T06:15:29.876Z,16.98
2023-04-22T06:17:58.736Z,16.30
2023-04-22T06:20:26.020Z,15.13
2023-04-22T06:22:52.876Z,17.13
2023-04-22T06:25:19.845Z,13.55
2023-04-22T06:27:46.680Z,19.35
2023-04-22T06:30:14.851Z,14.82
2023-04-22T06:32:41.734Z,19.70
2023-04-22T06:35:09.109Z,21.52
2023-04-22T06:37:36.760Z,14.15
2023-04-22T06:40:06.726Z,19.58
2023-04-22T06:42:52.458Z,17.95
2023-04-22T06:45:20.540Z,17.15
2023-04-22T06:48:07.612Z,16.20
2023-04-22T06:50:57.430Z,18.33
2023-04-22T06:53:24.334Z,22.52
2023-04-22T06:55:51.531Z,65.22
2023-04-22T06:58:18.616Z,96.63
2023-04-22T07:00:45.499Z,43.03
2023-04-22T07:03:12.964Z,27.52
2023-04-22T07:05:40.084Z,29.52
2023-04-22T07:08:08.618Z,33.60
2023-04-22T07:10:35.383Z,26.45
2023-04-22T07:13:20.965Z,29.90
2023-04-22T07:15:47.997Z,38.83
2023-04-22T07:18:14.811Z,26.17
2023-04-22T07:20:41.669Z,26.48
2023-04-22T07:23:08.542Z,24.92
2023-04-22T07:25:35.442Z,21.05
2023-04-22T07:28:02.334Z,21.33
2023-04-22T07:30:29.293Z,15.63
2023-04-22T07:32:56.166Z,18.70
2023-04-22T07:35:23.162Z,13.82
2023-04-22T07:37:50.064Z,16.25
2023-04-22T07:40:16.989Z,18.88
2023-04-22T07:42:43.810Z,25.60
2023-04-22T07:45:10.776Z,26.85
2023-04-22T07:47:37.582Z,21.95
2023-04-22T07:50:05.023Z,22.60
2023-04-22T07:52:31.950Z,22.77
2023-04-22T07:54:58.794Z,22.65
2023-04-22T07:57:25.856Z,17.20
2023-04-22T07:59:52.759Z,25.33
2023-04-22T08:02:19.671Z,40.65
2023-04-22T08:04:47.033Z,22.98
2023-04-22T08:07:31.018Z,19.52
2023-04-22T08:10:00.371Z,14.25
2023-04-22T08:12:27.971Z,15.82
2023-04-22T08:14:54.779Z,18.45
2023-04-22T08:17:22.259Z,20.83
2023-04-22T08:19:49.759Z,17.65
2023-04-22T08:22:17.791Z,15.30
2023-04-22T08:24:44.838Z,15.55
2023-04-22T08:27:11.608Z,15.80
2023-04-22T08:29:38.678Z,16.23
2023-04-22T08:32:05.898Z,17.27
2023-04-22T08:34:32.794Z,18.73
2023-04-22T08:36:59.654Z,18.88
2023-04-22T08:39:26.628Z,19.65
2023-04-22T08:41:53.909Z,17.20
2023-04-22T08:44:21.828Z,15.20
2023-04-22T08:46:49.375Z,18.90
2023-04-22T08:49:16.891Z,26.50
2023-04-22T08:51:45.018Z,27.13
2023-04-22T08:54:12.368Z,20.73
2023-04-22T08:56:45.682Z,15.95
2023-04-22T08:59:13.455Z,15.57
2023-04-22T09:01:41.495Z,13.75
2023-04-22T09:04:11.089Z,15.30
2023-04-22T09:06:39.252Z,19.02
2023-04-22T09:09:06.223Z,17.42
2023-04-22T09:11:33.693Z,18.67
2023-04-22T09:14:00.808Z,17.42
2023-04-22T09:16:32.975Z,13.85
2023-04-22T09:18:59.996Z,14.85
2023-04-22T09:21:29.877Z,15.85
2023-04-22T09:23:57.057Z,16.30
2023-04-22T09:26:26.119Z,19.52
2023-04-22T09:28:55.869Z,18.88
2023-04-22T09:31:22.947Z,18.05
2023-04-22T09:33:55.766Z,17.63
2023-04-22T09:36:30.309Z,14.05
2023-04-22T09:39:15.705Z,20.88
2023-04-22T09:41:42.922Z,17.08
2023-04-22T09:44:18.144Z,15.80
2023-04-22T09:46:45.458Z,17.02
2023-04-22T09:49:15.989Z,21.50
2023-04-22T09:51:43.002Z,18.75
2023-04-22T09:54:11.201Z,17.35
2023-04-22T09:56:48.887Z,16.35
2023-04-22T09:59:19.950Z,16.70
2023-04-22T10:01:46.864Z,22.10
2023-04-22T10:04:15.477Z,14.85
2023-04-22T10:06:42.986Z,16.95
2023-04-22T10:09:09.999Z,18.45
2023-04-22T10:11:38.176Z,22.15
2023-04-22T10:14:05.405Z,20.50
2023-04-22T10:16:34.814Z,21.63
2023-04-22T10:19:04.683Z,20.65
2023-04-22T10:21:33.385Z,24.07
2023-04-22T10:24:00.763Z,14.85
2023-04-22T10:26:56.884Z,15.93
2023-04-22T10:29:25.614Z,16.35
2023-04-22T10:31:59.490Z,22.77
2023-04-22T10:34:26.377Z,19.65
2023-04-22T10:36:53.103Z,22.17
2023-04-22T10:39:22.124Z,18.23
2023-04-22T10:41:54.362Z,21.15
2023-04-22T10:44:22.654Z,23.67
2023-04-22T10:46:52.328Z,21.25
2023-04-22T10:49:24.388Z,17.15
2023-04-22T10:51:58.210Z,19.58
2023-04-22T10:54:30.539Z,12.73
2023-04-22T10:57:06.719Z,16.83
2023-04-22T10:59:50.117Z,19.42
2023-04-22T11:02:18.291Z,19.95
2023-04-22T11:04:45.640Z,16.98
2023-04-22T11:07:20.306Z,16.60
2023-04-22T11:09:51.949Z,20.30
2023-04-22T11:12:41.825Z,17.60
2023-04-22T11:15:09.762Z,12.70
2023-04-22T11:17:42.473Z,12.38
2023-04-22T11:20:10.453Z,12.85
2023-04-22T11:22:39.112Z,16.42
2023-04-22T11:25:08.235Z,11.77
2023-04-22T11:27:34.995Z,12.35
2023-04-22T11:30:07.661Z,12.32
2023-04-22T11:32:36.122Z,11.07
2023-04-22T11:35:10.814Z,13.27
2023-04-22T11:37:45.887Z,10.40
2023-04-22T11:40:29.924Z,9.63
2023-04-22T11:43:00.286Z,14.68
2023-04-22T11:45:28.520Z,9.20
2023-04-22T11:47:56.409Z,14.75
2023-04-22T11:50:25.835Z,18.60
2023-04-22T11:52:58.997Z,13.52
2023-04-22T11:55:39.452Z,12.93
2023-04-22T11:58:11.004Z,12.65
2023-04-22T12:00:49.721Z,12.52
2023-04-22T12:03:18.871Z,11.60
2023-04-22T12:06:00.329Z,12.57
2023-04-22T12:08:47.218Z,9.07
2023-04-22T12:11:14.107Z,11.45
2023-04-22T12:13:48.007Z,9.07
2023-04-22T12:16:19.543Z,9.07
2023-04-22T12:18:54.665Z,10.98
2023-04-22T12:21:24.689Z,7.68
2023-04-22T12:23:59.058Z,10.23
2023-04-22T12:26:27.747Z,14.07
2023-04-22T12:28:56.904Z,8.35
2023-04-22T12:31:24.613Z,9.15
2023-04-22T12:33:51.868Z,10.18
2023-04-22T12:36:20.875Z,8.65
2023-04-22T12:38:48.167Z,9.02
2023-04-22T12:41:15.876Z,10.55
2023-04-22T12:43:42.708Z,8.38
2023-04-22T12:46:10.118Z,8.35
2023-04-22T12:48:37.732Z,8.85
2023-04-22T12:51:06.569Z,8.38
2023-04-22T12:53:33.402Z,9.82
2023-04-22T12:56:00.250Z,8.75
2023-04-22T12:58:27.087Z,8.35
2023-04-22T13:00:53.914Z,8.05
2023-04-22T13:03:21.253Z,8.27
2023-04-22T13:05:48.245Z,6.95
2023-04-22T13:08:15.086Z,7.68
2023-04-22T13:10:41.959Z,8.15
2023-04-22T13:15:38.937Z,7.70
2023-04-22T13:18:06.271Z,7.10
2023-04-22T13:20:33.336Z,7.13
2023-04-22T13:23:00.092Z,7.72
2023-04-22T13:25:27.005Z,6.72
2023-04-22T13:27:53.754Z,6.75
2023-04-22T13:30:20.730Z,8.60
2023-04-22T13:32:48.824Z,6.72
2023-04-22T13:35:17.996Z,8.07
2023-04-22T13:37:46.058Z,7.55
2023-04-22T13:40:13.086Z,7.85
2023-04-22T13:42:40.215Z,9.02
2023-04-22T13:45:07.699Z,10.27
2023-04-22T13:47:34.519Z,7.05
2023-04-22T13:50:01.994Z,7.60
2023-04-22T13:52:29.164Z,7.47
2023-04-22T13:54:56.010Z,8.65
2023-04-22T13:57:23.385Z,7.28
2023-04-22T13:59:50.797Z,7.78
2023-04-22T14:02:18.036Z,7.65
2023-04-22T14:04:44.862Z,8.82
2023-04-22T14:07:12.561Z,7.03
2023-04-22T14:09:39.899Z,7.78
2023-04-22T14:12:08.319Z,8.57
2023-04-22T14:14:35.237Z,8.13
2023-04-22T14:17:02.235Z,7.25
2023-04-22T14:19:30.339Z,8.13
2023-04-22T14:21:57.538Z,10.18
2023-04-22T14:24:24.700Z,9.93
2023-04-22T14:26:52.499Z,9.15
2023-04-22T14:29:19.752Z,7.75
2023-04-22T14:31:46.772Z,8.48
2023-04-22T14:34:13.668Z,8.15
2023-04-22T14:36:40.456Z,7.30
2023-04-22T14:39:07.544Z,9.18
2023-04-22T14:41:34.608Z,8.88
2023-04-22T14:44:01.391Z,8.20
2023-04-22T14:46:28.258Z,7.90
2023-04-22T14:48:55.039Z,9.50
2023-04-22T14:51:21.874Z,9.20
2023-04-22T14:53:48.936Z,14.35
2023-04-22T14:56:16.061Z,10.77
2023-04-22T14:58:43.181Z,7.97
2023-04-22T15:01:10.170Z,7.53
2023-04-22T15:03:37.488Z,7.20
2023-04-22T15:06:04.692Z,8.15
2023-04-22T15:08:31.491Z,10.15
2023-04-22T15:10:59.698Z,8.80
2023-04-22T15:13:26.599Z,10.02
2023-04-22T15:15:53.539Z,7.90
2023-04-22T15:18:20.619Z,8.90
2023-04-22T15:20:47.387Z,9.45
2023-04-22T15:23:14.604Z,8.32
2023-04-22T15:25:41.638Z,7.32
2023-04-22T15:28:08.814Z,8.00
2023-04-22T15:30:35.816Z,7.82
2023-04-22T15:33:04.832Z,9.38
2023-04-22T15:35:32.037Z,11.38
2023-04-22T15:37:59.177Z,8.02
2023-04-22T15:40:26.043Z,6.70
2023-04-22T15:42:52.915Z,7.88
2023-04-22T15:45:20.328Z,8.35
2023-04-22T15:47:47.222Z,6.38
2023-04-22T15:50:14.124Z,6.35
2023-04-22T15:52:40.977Z,7.40
2023-04-22T15:55:08.220Z,9.30
2023-04-22T15:57:35.691Z,6.47
2023-04-22T16:00:13.161Z,7.25
2023-04-22T16:02:42.511Z,7.55
2023-04-22T16:05:11.327Z,8.02
2023-04-22T16:07:38.172Z,9.18
2023-04-22T16:10:05.417Z,8.13
2023-04-22T16:12:34.011Z,7.75
2023-04-22T16:15:01.292Z,8.23
2023-04-22T16:17:28.347Z,7.63
2023-04-22T16:19:55.582Z,8.63
2023-04-22T16:22:22.601Z,9.55
2023-04-22T16:24:49.368Z,9.55
2023-04-22T16:27:18.061Z,7.72
2023-04-22T16:29:45.365Z,7.03
2023-04-22T16:32:12.300Z,6.55
2023-04-22T16:34:39.084Z,7.78
2023-04-22T16:37:06.437Z,8.88
2023-04-22T16:39:33.562Z,8.10
2023-04-22T16:42:02.341Z,7.32
2023-04-22T16:44:29.203Z,9.50
2023-04-22T16:46:56.106Z,7.45
2023-04-22T16:49:23.045Z,9.80
2023-04-22T16:51:49.929Z,6.68
2023-04-22T16:54:16.817Z,6.80
2023-04-22T16:56:43.780Z,6.75
2023-04-22T16:59:10.569Z,8.25
2023-04-22T17:01:37.415Z,12.40
2023-04-22T17:04:04.341Z,8.13
2023-04-22T17:06:32.354Z,8.63
2023-04-22T17:08:59.841Z,9.52
2023-04-22T17:11:26.749Z,8.68
2023-04-22T17:13:53.592Z,7.25
2023-04-22T17:16:20.886Z,8.15
2023-04-22T17:18:47.909Z,6.97
2023-04-22T17:21:16.552Z,6.78
2023-04-22T17:23:43.557Z,7.22
2023-04-22T17:26:10.791Z,8.48
2023-04-22T17:28:37.550Z,7.50
2023-04-22T17:31:04.504Z,7.32
2023-04-22T17:33:31.429Z,7.70
2023-04-22T17:35:58.807Z,10.00
2023-04-22T17:38:25.652Z,8.25
2023-04-22T17:40:52.515Z,7.38
2023-04-22T17:43:19.417Z,6.72
2023-04-22T17:45:46.254Z,7.10
2023-04-22T17:48:13.092Z,9.20
2023-04-22T17:50:40.116Z,9.30
2023-04-22T17:53:06.985Z,7.85
2023-04-22T17:55:35.264Z,6.75
2023-04-22T17:58:03.741Z,7.70
2023-04-22T18:00:31.801Z,7.35
2023-04-22T18:02:59.148Z,8.18
2023-04-22T18:05:27.204Z,9.60
2023-04-22T18:08:00.808Z,6.90
2023-04-22T18:10:28.310Z,6.50
2023-04-22T18:12:55.413Z,7.13
2023-04-22T18:15:23.769Z,7.07
2023-04-22T18:17:51.181Z,10.60
2023-04-22T18:20:19.458Z,7.93
2023-04-22T18:22:51.890Z,6.65
2023-04-22T18:25:18.766Z,7.85
2023-04-22T18:27:45.674Z,6.93
2023-04-22T18:30:12.828Z,8.88
2023-04-22T18:32:39.707Z,9.95
2023-04-22T18:35:07.154Z,8.50
2023-04-22T18:37:34.724Z,7.45
2023-04-22T18:40:02.345Z,8.95
2023-04-22T18:42:29.170Z,9.68
2023-04-22T18:44:56.074Z,8.85
2023-04-22T18:47:23.073Z,8.98
2023-04-22T18:49:49.990Z,8.77
2023-04-22T18:52:17.266Z,7.85
2023-04-22T18:54:44.611Z,8.93
2023-04-22T18:57:11.372Z,7.63
2023-04-22T18:59:38.547Z,7.15
2023-04-22T19:02:05.881Z,9.27
2023-04-22T19:04:32.920Z,6.80
2023-04-22T19:06:59.836Z,9.80
2023-04-22T19:09:26.816Z,6.55
2023-04-22T19:11:53.670Z,7.28
2023-04-22T19:14:20.500Z,8.30
2023-04-22T19:16:47.251Z,6.90
2023-04-22T19:19:14.115Z,9.35
2023-04-22T19:21:41.109Z,11.70
2023-04-22T19:24:08.269Z,10.60
2023-04-22T19:26:35.213Z,9.40
2023-04-22T19:29:02.168Z,10.13
2023-04-22T19:31:29.421Z,10.73
2023-04-22T19:33:56.594Z,9.45
2023-04-22T19:36:23.760Z,7.95
2023-04-22T19:38:50.594Z,7.38
2023-04-22T19:41:17.410Z,8.60
2023-04-22T19:43:44.298Z,9.07
2023-04-22T19:46:11.627Z,8.27
2023-04-22T19:48:38.860Z,9.10
2023-04-22T19:51:06.738Z,6.95
2023-04-22T19:53:35.021Z,7.93
2023-04-22T19:56:03.021Z,8.60
2023-04-22T19:58:31.766Z,7.57
2023-04-22T20:00:59.054Z,9.20
2023-04-22T20:03:27.169Z,7.88
2023-04-22T20:05:54.660Z,6.82
2023-04-22T20:08:26.817Z,7.65
2023-04-22T20:10:54.845Z,8.88
2023-04-22T20:13:22.550Z,6.47
2023-04-22T20:15:50.194Z,8.82
2023-04-22T20:18:23.741Z,9.52
2023-04-22T20:20:57.162Z,9.45
2023-04-22T20:23:24.764Z,7.38
2023-04-22T20:25:54.109Z,7.57
2023-04-22T20:28:21.547Z,6.22
2023-04-22T20:30:48.855Z,7.75
2023-04-22T20:33:18.033Z,10.13
2023-04-22T20:35:46.446Z,9.00
2023-04-22T20:38:15.303Z,6.80
2023-04-22T20:40:43.891Z,8.20
2023-04-22T20:43:11.448Z,10.10
2023-04-22T20:45:38.295Z,6.68
2023-04-22T20:48:05.354Z,7.57
2023-04-22T20:50:33.569Z,10.23
2023-04-22T20:53:01.251Z,7.32
2023-04-22T20:55:28.382Z,5.72
2023-04-22T20:57:55.217Z,7.53
2023-04-22T21:00:22.411Z,8.13
2023-04-22T21:02:50.292Z,7.68
2023-04-22T21:05:17.837Z,7.22
2023-04-22T21:07:47.831Z,7.07
2023-04-22T21:10:15.038Z,11.55
2023-04-22T21:12:42.103Z,7.88
2023-04-22T21:15:09.656Z,6.82
2023-04-22T21:17:40.302Z,8.32
2023-04-22T21:20:09.338Z,6.18
2023-04-22T21:22:37.406Z,7.90
2023-04-22T21:25:04.899Z,7.45
2023-04-22T21:27:31.864Z,9.52
2023-04-22T21:29:59.022Z,7.47
2023-04-22T21:32:26.631Z,7.65
2023-04-22T21:34:53.555Z,7.38
2023-04-22T21:37:20.830Z,7.57
2023-04-22T21:39:47.810Z,7.10
2023-04-22T21:42:14.660Z,6.82
2023-04-22T21:44:44.763Z,8.07
2023-04-22T21:47:11.618Z,6.13
2023-04-22T21:49:40.653Z,7.75
2023-04-22T21:52:07.698Z,9.10
2023-04-22T21:54:34.749Z,9.35
2023-04-22T21:57:02.176Z,6.40
2023-04-22T21:59:29.174Z,6.50
2023-04-22T22:01:56.249Z,10.02
2023-04-22T22:04:23.492Z,8.30
2023-04-22T22:06:50.545Z,6.07
2023-04-22T22:09:17.758Z,8.15
2023-04-22T22:11:44.574Z,7.30
2023-04-22T22:14:14.606Z,7.72
2023-04-22T22:16:41.840Z,7.88
2023-04-22T22:19:11.212Z,9.00
2023-04-22T22:21:41.648Z,7.07
2023-04-22T22:24:11.074Z,6.63
2023-04-22T22:26:44.096Z,6.40
2023-04-22T22:29:15.747Z,9.63
2023-04-22T22:31:43.773Z,8.52
2023-04-22T22:34:11.317Z,9.52
2023-04-22T22:36:38.805Z,8.55
2023-04-22T22:39:05.654Z,7.90
2023-04-22T22:41:32.679Z,9.18
2023-04-22T22:43:59.858Z,6.43
2023-04-22T22:46:26.871Z,9.10
2023-04-22T22:48:54.524Z,7.30
2023-04-22T22:51:21.874Z,11.52
2023-04-22T22:53:50.835Z,11.32
2023-04-22T22:56:21.594Z,7.75
2023-04-22T22:58:48.795Z,7.28
2023-04-22T23:01:19.487Z,6.70
2023-04-22T23:03:48.844Z,7.30
2023-04-22T23:06:16.295Z,7.65
2023-04-22T23:08:43.313Z,12.05
2023-04-22T23:11:10.175Z,7.20
2023-04-22T23:13:37.068Z,8.65
2023-04-22T23:16:04.408Z,9.10
2023-04-22T23:18:32.617Z,11.13
2023-04-22T23:21:02.677Z,8.45
2023-04-22T23:23:30.441Z,8.63
2023-04-22T23:25:57.840Z,11.35
2023-04-22T23:28:25.095Z,10.02
2023-04-22T23:30:54.727Z,8.07
2023-04-22T23:33:25.924Z,9.05
2023-04-22T23:35:53.365Z,6.93
2023-04-22T23:38:20.201Z,7.00
2023-04-22T23:40:47.153Z,8.43
2023-04-22T23:43:13.970Z,9.90
2023-04-22T23:45:40.744Z,9.63
2023-04-22T23:48:08.969Z,10.38
2023-04-22T23:50:35.938Z,9.30
2023-04-22T23:53:02.877Z,8.35
2023-04-22T23:55:30.061Z,7.35
2023-04-22T23:57:57.862Z,7.95
